sensor_id;sensor_type;location;lat;lon;timestamp;P1;durP1;ratioP1;P2;durP2;ratioP2
13720;SDS011;6932;51.438;5.470;2024-03-06T00:02:04;14.73;;;10.73;;
13720;SDS011;6932;51.438;5.470;2024-03-06T00:04:31;17.20;;;11.10;;
13720;SDS011;6932;51.438;5.470;2024-03-06T00:06:57;14.87;;;10.77;;
13720;SDS011;6932;51.438;5.470;2024-03-06T00:09:23;15.37;;;10.93;;
13720;SDS011;6932;51.438;5.470;2024-03-06T00:11:51;15.57;;;10.60;;
13720;SDS011;6932;51.438;5.470;2024-03-06T00:14:18;15.60;;;10.40;;
13720;SDS011;6932;51.438;5.470;2024-03-06T00:16:46;16.63;;;11.30;;
13720;SDS011;6932;51.438;5.470;2024-03-06T00:19:15;15.47;;;10.30;;
13720;SDS011;6932;51.438;5.470;2024-03-06T00:21:44;15.00;;;10.70;;
13720;SDS011;6932;51.438;5.470;2024-03-06T00:24:13;15.73;;;11.10;;
13720;SDS011;6932;51.438;5.470;2024-03-06T00:26:43;16.33;;;10.80;;
13720;SDS011;6932;51.438;5.470;2024-03-06T00:29:10;16.13;;;10.90;;
13720;SDS011;6932;51.438;5.470;2024-03-06T00:31:36;14.77;;;10.70;;
13720;SDS011;6932;51.438;5.470;2024-03-06T00:34:08;16.10;;;10.90;;
13720;SDS011;6932;51.438;5.470;2024-03-06T00:36:34;16.03;;;10.93;;
13720;SDS011;6932;51.438;5.470;2024-03-06T00:39:00;16.17;;;11.37;;
13720;SDS011;6932;51.438;5.470;2024-03-06T00:41:29;14.80;;;10.80;;
13720;SDS011;6932;51.438;5.470;2024-03-06T00:43:56;15.70;;;10.47;;
13720;SDS011;6932;51.438;5.470;2024-03-06T00:46:21;15.63;;;11.23;;
13720;SDS011;6932;51.438;5.470;2024-03-06T00:48:48;17.87;;;11.67;;
13720;SDS011;6932;51.438;5.470;2024-03-06T00:51:13;16.20;;;11.30;;
13720;SDS011;6932;51.438;5.470;2024-03-06T00:53:39;16.37;;;11.13;;
13720;SDS011;6932;51.438;5.470;2024-03-06T00:56:05;15.10;;;11.00;;
13720;SDS011;6932;51.438;5.470;2024-03-06T00:58:32;14.60;;;10.80;;
13720;SDS011;6932;51.438;5.470;2024-03-06T01:00:58;16.23;;;11.47;;
13720;SDS011;6932;51.438;5.470;2024-03-06T01:03:24;15.40;;;10.90;;
13720;SDS011;6932;51.438;5.470;2024-03-06T01:05:50;14.90;;;10.97;;
13720;SDS011;6932;51.438;5.470;2024-03-06T01:08:18;14.60;;;10.30;;
13720;SDS011;6932;51.438;5.470;2024-03-06T01:10:44;16.13;;;10.50;;
13720;SDS011;6932;51.438;5.470;2024-03-06T01:13:10;15.63;;;10.43;;
13720;SDS011;6932;51.438;5.470;2024-03-06T01:15:36;15.20;;;10.73;;
13720;SDS011;6932;51.438;5.470;2024-03-06T01:18:03;14.70;;;10.40;;
13720;SDS011;6932;51.438;5.470;2024-03-06T01:20:29;14.50;;;9.87;;
13720;SDS011;6932;51.438;5.470;2024-03-06T01:22:55;13.83;;;9.63;;
13720;SDS011;6932;51.438;5.470;2024-03-06T01:25:20;15.47;;;10.60;;
13720;SDS011;6932;51.438;5.470;2024-03-06T01:27:49;15.27;;;10.33;;
13720;SDS011;6932;51.438;5.470;2024-03-06T01:30:15;18.50;;;10.57;;
13720;SDS011;6932;51.438;5.470;2024-03-06T01:32:41;15.13;;;10.10;;
13720;SDS011;6932;51.438;5.470;2024-03-06T01:35:06;14.73;;;9.90;;
13720;SDS011;6932;51.438;5.470;2024-03-06T01:37:32;14.50;;;10.10;;
13720;SDS011;6932;51.438;5.470;2024-03-06T01:39:58;14.03;;;9.83;;
13720;SDS011;6932;51.438;5.470;2024-03-06T01:42:24;15.20;;;9.97;;
13720;SDS011;6932;51.438;5.470;2024-03-06T01:44:50;13.33;;;9.30;;
13720;SDS011;6932;51.438;5.470;2024-03-06T01:47:15;13.30;;;9.00;;
13720;SDS011;6932;51.438;5.470;2024-03-06T01:49:41;13.23;;;8.80;;
13720;SDS011;6932;51.438;5.470;2024-03-06T01:52:08;14.07;;;9.10;;
13720;SDS011;6932;51.438;5.470;2024-03-06T01:54:38;11.93;;;8.23;;
13720;SDS011;6932;51.438;5.470;2024-03-06T01:57:04;13.47;;;8.87;;
13720;SDS011;6932;51.438;5.470;2024-03-06T01:59:33;13.10;;;8.90;;
13720;SDS011;6932;51.438;5.470;2024-03-06T02:01:59;13.63;;;9.10;;
13720;SDS011;6932;51.438;5.470;2024-03-06T02:04:28;13.87;;;9.47;;
13720;SDS011;6932;51.438;5.470;2024-03-06T02:06:55;14.37;;;9.30;;
13720;SDS011;6932;51.438;5.470;2024-03-06T02:09:21;12.90;;;9.10;;
13720;SDS011;6932;51.438;5.470;2024-03-06T02:11:48;13.10;;;9.40;;
13720;SDS011;6932;51.438;5.470;2024-03-06T02:14:15;14.23;;;9.43;;
13720;SDS011;6932;51.438;5.470;2024-03-06T02:16:41;12.97;;;9.40;;
13720;SDS011;6932;51.438;5.470;2024-03-06T02:19:07;13.20;;;9.00;;
13720;SDS011;6932;51.438;5.470;2024-03-06T02:21:33;14.10;;;9.27;;
13720;SDS011;6932;51.438;5.470;2024-03-06T02:23:59;12.60;;;8.97;;
13720;SDS011;6932;51.438;5.470;2024-03-06T02:26:25;13.77;;;9.23;;
13720;SDS011;6932;51.438;5.470;2024-03-06T02:28:52;12.90;;;8.60;;
13720;SDS011;6932;51.438;5.470;2024-03-06T02:31:19;13.20;;;8.70;;
13720;SDS011;6932;51.438;5.470;2024-03-06T02:33:47;13.47;;;8.97;;
13720;SDS011;6932;51.438;5.470;2024-03-06T02:36:14;13.23;;;8.87;;
13720;SDS011;6932;51.438;5.470;2024-03-06T02:38:43;12.90;;;8.93;;
13720;SDS011;6932;51.438;5.470;2024-03-06T02:41:10;12.37;;;8.47;;
13720;SDS011;6932;51.438;5.470;2024-03-06T02:43:38;12.17;;;8.43;;
13720;SDS011;6932;51.438;5.470;2024-03-06T02:46:04;13.27;;;9.23;;
13720;SDS011;6932;51.438;5.470;2024-03-06T02:48:30;13.00;;;8.70;;
13720;SDS011;6932;51.438;5.470;2024-03-06T02:50:56;14.20;;;8.97;;
13720;SDS011;6932;51.438;5.470;2024-03-06T02:53:23;12.97;;;8.60;;
13720;SDS011;6932;51.438;5.470;2024-03-06T02:55:50;13.07;;;8.50;;
13720;SDS011;6932;51.438;5.470;2024-03-06T02:58:16;12.43;;;8.53;;
13720;SDS011;6932;51.438;5.470;2024-03-06T03:00:42;13.67;;;8.73;;
13720;SDS011;6932;51.438;5.470;2024-03-06T03:03:09;12.90;;;8.70;;
13720;SDS011;6932;51.438;5.470;2024-03-06T03:05:39;13.13;;;8.93;;
13720;SDS011;6932;51.438;5.470;2024-03-06T03:08:08;13.83;;;8.47;;
13720;SDS011;6932;51.438;5.470;2024-03-06T03:10:34;11.33;;;7.77;;
13720;SDS011;6932;51.438;5.470;2024-03-06T03:13:00;11.90;;;8.03;;
13720;SDS011;6932;51.438;5.470;2024-03-06T03:15:26;11.67;;;7.83;;
13720;SDS011;6932;51.438;5.470;2024-03-06T03:17:52;11.83;;;8.33;;
13720;SDS011;6932;51.438;5.470;2024-03-06T03:20:18;12.77;;;7.60;;
13720;SDS011;6932;51.438;5.470;2024-03-06T03:22:43;12.70;;;8.20;;
13720;SDS011;6932;51.438;5.470;2024-03-06T03:25:10;11.43;;;8.10;;
13720;SDS011;6932;51.438;5.470;2024-03-06T03:27:37;11.40;;;8.03;;
13720;SDS011;6932;51.438;5.470;2024-03-06T03:30:08;11.73;;;8.17;;
13720;SDS011;6932;51.438;5.470;2024-03-06T03:32:35;12.63;;;8.63;;
13720;SDS011;6932;51.438;5.470;2024-03-06T03:35:02;13.00;;;8.10;;
13720;SDS011;6932;51.438;5.470;2024-03-06T03:37:32;12.87;;;8.33;;
13720;SDS011;6932;51.438;5.470;2024-03-06T03:39:58;13.17;;;8.50;;
13720;SDS011;6932;51.438;5.470;2024-03-06T03:42:24;11.73;;;8.10;;
13720;SDS011;6932;51.438;5.470;2024-03-06T03:44:50;13.30;;;8.57;;
13720;SDS011;6932;51.438;5.470;2024-03-06T03:47:16;12.10;;;8.37;;
13720;SDS011;6932;51.438;5.470;2024-03-06T03:49:41;12.63;;;8.50;;
13720;SDS011;6932;51.438;5.470;2024-03-06T03:52:07;12.00;;;8.23;;
13720;SDS011;6932;51.438;5.470;2024-03-06T03:54:33;12.53;;;8.50;;
13720;SDS011;6932;51.438;5.470;2024-03-06T03:57:00;14.10;;;8.53;;
13720;SDS011;6932;51.438;5.470;2024-03-06T03:59:26;13.67;;;8.57;;
13720;SDS011;6932;51.438;5.470;2024-03-06T04:01:52;12.93;;;8.70;;
13720;SDS011;6932;51.438;5.470;2024-03-06T04:04:18;12.73;;;8.10;;
13720;SDS011;6932;51.438;5.470;2024-03-06T04:06:43;13.00;;;8.30;;
13720;SDS011;6932;51.438;5.470;2024-03-06T04:09:10;12.40;;;8.50;;
13720;SDS011;6932;51.438;5.470;2024-03-06T04:11:36;11.70;;;8.20;;
13720;SDS011;6932;51.438;5.470;2024-03-06T04:14:03;11.60;;;7.80;;
13720;SDS011;6932;51.438;5.470;2024-03-06T04:16:31;13.67;;;8.53;;
13720;SDS011;6932;51.438;5.470;2024-03-06T04:18:58;11.73;;;7.97;;
13720;SDS011;6932;51.438;5.470;2024-03-06T04:21:23;14.00;;;8.23;;
13720;SDS011;6932;51.438;5.470;2024-03-06T04:23:49;12.37;;;8.27;;
13720;SDS011;6932;51.438;5.470;2024-03-06T04:26:15;13.93;;;8.60;;
13720;SDS011;6932;51.438;5.470;2024-03-06T04:28:42;12.97;;;8.47;;
13720;SDS011;6932;51.438;5.470;2024-03-06T04:31:09;13.13;;;8.80;;
13720;SDS011;6932;51.438;5.470;2024-03-06T04:33:35;12.07;;;8.10;;
13720;SDS011;6932;51.438;5.470;2024-03-06T04:36:02;12.17;;;8.47;;
13720;SDS011;6932;51.438;5.470;2024-03-06T04:38:32;12.63;;;8.53;;
13720;SDS011;6932;51.438;5.470;2024-03-06T04:40:58;14.53;;;7.93;;
13720;SDS011;6932;51.438;5.470;2024-03-06T04:43:23;13.20;;;8.43;;
13720;SDS011;6932;51.438;5.470;2024-03-06T04:45:49;12.63;;;8.33;;
13720;SDS011;6932;51.438;5.470;2024-03-06T04:48:15;13.00;;;8.40;;
13720;SDS011;6932;51.438;5.470;2024-03-06T04:50:40;12.60;;;7.93;;
13720;SDS011;6932;51.438;5.470;2024-03-06T04:53:06;11.90;;;7.80;;
13720;SDS011;6932;51.438;5.470;2024-03-06T04:55:32;12.20;;;8.13;;
13720;SDS011;6932;51.438;5.470;2024-03-06T04:57:58;11.83;;;8.00;;
13720;SDS011;6932;51.438;5.470;2024-03-06T05:00:24;12.43;;;8.10;;
13720;SDS011;6932;51.438;5.470;2024-03-06T05:02:49;11.63;;;8.10;;
13720;SDS011;6932;51.438;5.470;2024-03-06T05:05:15;12.00;;;7.47;;
13720;SDS011;6932;51.438;5.470;2024-03-06T05:07:41;12.30;;;7.63;;
13720;SDS011;6932;51.438;5.470;2024-03-06T05:10:07;11.67;;;7.50;;
13720;SDS011;6932;51.438;5.470;2024-03-06T05:12:33;13.50;;;8.40;;
13720;SDS011;6932;51.438;5.470;2024-03-06T05:14:59;12.33;;;8.07;;
13720;SDS011;6932;51.438;5.470;2024-03-06T05:17:25;11.87;;;8.10;;
13720;SDS011;6932;51.438;5.470;2024-03-06T05:19:51;11.80;;;7.80;;
13720;SDS011;6932;51.438;5.470;2024-03-06T05:22:17;11.80;;;7.50;;
13720;SDS011;6932;51.438;5.470;2024-03-06T05:24:43;12.30;;;8.03;;
13720;SDS011;6932;51.438;5.470;2024-03-06T05:27:09;11.10;;;7.53;;
13720;SDS011;6932;51.438;5.470;2024-03-06T05:29:42;12.33;;;8.03;;
13720;SDS011;6932;51.438;5.470;2024-03-06T05:32:08;13.00;;;7.67;;
13720;SDS011;6932;51.438;5.470;2024-03-06T05:34:35;12.63;;;7.90;;
13720;SDS011;6932;51.438;5.470;2024-03-06T05:37:00;12.77;;;8.43;;
13720;SDS011;6932;51.438;5.470;2024-03-06T05:39:29;11.50;;;7.60;;
13720;SDS011;6932;51.438;5.470;2024-03-06T05:42:05;11.77;;;7.80;;
13720;SDS011;6932;51.438;5.470;2024-03-06T05:44:31;12.00;;;7.90;;
13720;SDS011;6932;51.438;5.470;2024-03-06T05:46:58;13.60;;;8.37;;
13720;SDS011;6932;51.438;5.470;2024-03-06T05:49:25;13.20;;;8.00;;
13720;SDS011;6932;51.438;5.470;2024-03-06T05:51:52;13.47;;;8.77;;
13720;SDS011;6932;51.438;5.470;2024-03-06T05:54:19;12.87;;;8.67;;
13720;SDS011;6932;51.438;5.470;2024-03-06T05:56:49;12.93;;;8.27;;
13720;SDS011;6932;51.438;5.470;2024-03-06T05:59:16;12.03;;;8.00;;
13720;SDS011;6932;51.438;5.470;2024-03-06T06:01:45;12.90;;;8.33;;
13720;SDS011;6932;51.438;5.470;2024-03-06T06:04:12;12.93;;;7.87;;
13720;SDS011;6932;51.438;5.470;2024-03-06T06:06:39;12.60;;;8.23;;
13720;SDS011;6932;51.438;5.470;2024-03-06T06:09:05;13.10;;;8.33;;
13720;SDS011;6932;51.438;5.470;2024-03-06T06:11:31;12.30;;;7.97;;
13720;SDS011;6932;51.438;5.470;2024-03-06T06:13:59;12.37;;;7.50;;
13720;SDS011;6932;51.438;5.470;2024-03-06T06:16:25;12.07;;;7.50;;
13720;SDS011;6932;51.438;5.470;2024-03-06T06:18:51;12.33;;;7.60;;
13720;SDS011;6932;51.438;5.470;2024-03-06T06:21:17;11.97;;;7.70;;
13720;SDS011;6932;51.438;5.470;2024-03-06T06:23:43;13.10;;;7.70;;
13720;SDS011;6932;51.438;5.470;2024-03-06T06:26:09;12.23;;;7.53;;
13720;SDS011;6932;51.438;5.470;2024-03-06T06:28:40;11.83;;;7.60;;
13720;SDS011;6932;51.438;5.470;2024-03-06T06:31:07;12.13;;;7.60;;
13720;SDS011;6932;51.438;5.470;2024-03-06T06:33:33;11.73;;;7.53;;
13720;SDS011;6932;51.438;5.470;2024-03-06T06:35:58;11.73;;;7.47;;
13720;SDS011;6932;51.438;5.470;2024-03-06T06:38:24;11.73;;;7.53;;
13720;SDS011;6932;51.438;5.470;2024-03-06T06:40:50;10.60;;;7.37;;
13720;SDS011;6932;51.438;5.470;2024-03-06T06:43:15;11.00;;;7.37;;
13720;SDS011;6932;51.438;5.470;2024-03-06T06:45:41;14.30;;;7.60;;
13720;SDS011;6932;51.438;5.470;2024-03-06T06:48:07;12.10;;;8.30;;
13720;SDS011;6932;51.438;5.470;2024-03-06T06:50:34;11.77;;;7.67;;
13720;SDS011;6932;51.438;5.470;2024-03-06T06:53:00;13.57;;;7.50;;
13720;SDS011;6932;51.438;5.470;2024-03-06T06:55:26;12.10;;;8.07;;
13720;SDS011;6932;51.438;5.470;2024-03-06T06:57:52;12.03;;;7.67;;
13720;SDS011;6932;51.438;5.470;2024-03-06T07:00:18;11.00;;;7.57;;
13720;SDS011;6932;51.438;5.470;2024-03-06T07:02:47;11.87;;;7.37;;
13720;SDS011;6932;51.438;5.470;2024-03-06T07:05:12;12.70;;;7.47;;
13720;SDS011;6932;51.438;5.470;2024-03-06T07:07:38;11.80;;;6.97;;
13720;SDS011;6932;51.438;5.470;2024-03-06T07:10:04;11.87;;;7.17;;
13720;SDS011;6932;51.438;5.470;2024-03-06T07:12:31;10.97;;;7.20;;
13720;SDS011;6932;51.438;5.470;2024-03-06T07:14:57;11.27;;;7.40;;
13720;SDS011;6932;51.438;5.470;2024-03-06T07:17:24;11.83;;;7.40;;
13720;SDS011;6932;51.438;5.470;2024-03-06T07:19:50;11.23;;;7.10;;
13720;SDS011;6932;51.438;5.470;2024-03-06T07:22:17;11.47;;;7.07;;
13720;SDS011;6932;51.438;5.470;2024-03-06T07:24:44;11.57;;;7.23;;
13720;SDS011;6932;51.438;5.470;2024-03-06T07:27:10;10.77;;;7.20;;
13720;SDS011;6932;51.438;5.470;2024-03-06T07:29:36;11.57;;;7.07;;
13720;SDS011;6932;51.438;5.470;2024-03-06T07:32:02;10.30;;;6.90;;
13720;SDS011;6932;51.438;5.470;2024-03-06T07:34:30;10.70;;;6.83;;
13720;SDS011;6932;51.438;5.470;2024-03-06T07:36:56;10.03;;;6.67;;
13720;SDS011;6932;51.438;5.470;2024-03-06T07:39:26;10.77;;;6.70;;
13720;SDS011;6932;51.438;5.470;2024-03-06T07:41:52;10.70;;;6.37;;
13720;SDS011;6932;51.438;5.470;2024-03-06T07:44:19;11.30;;;6.63;;
13720;SDS011;6932;51.438;5.470;2024-03-06T07:46:45;10.47;;;6.03;;
13720;SDS011;6932;51.438;5.470;2024-03-06T07:49:11;9.40;;;6.20;;
13720;SDS011;6932;51.438;5.470;2024-03-06T07:51:37;9.57;;;6.03;;
13720;SDS011;6932;51.438;5.470;2024-03-06T07:54:02;10.00;;;5.87;;
13720;SDS011;6932;51.438;5.470;2024-03-06T07:56:31;10.67;;;5.97;;
13720;SDS011;6932;51.438;5.470;2024-03-06T07:58:58;9.23;;;6.03;;
13720;SDS011;6932;51.438;5.470;2024-03-06T08:01:25;10.27;;;6.47;;
13720;SDS011;6932;51.438;5.470;2024-03-06T08:03:54;10.70;;;6.63;;
13720;SDS011;6932;51.438;5.470;2024-03-06T08:06:20;9.77;;;6.20;;
13720;SDS011;6932;51.438;5.470;2024-03-06T08:08:46;16.87;;;8.40;;
13720;SDS011;6932;51.438;5.470;2024-03-06T08:11:12;9.87;;;6.27;;
13720;SDS011;6932;51.438;5.470;2024-03-06T08:13:40;10.70;;;5.90;;
13720;SDS011;6932;51.438;5.470;2024-03-06T08:16:07;9.13;;;5.87;;
13720;SDS011;6932;51.438;5.470;2024-03-06T08:18:33;8.80;;;5.27;;
13720;SDS011;6932;51.438;5.470;2024-03-06T08:21:00;9.10;;;5.60;;
13720;SDS011;6932;51.438;5.470;2024-03-06T08:23:28;9.50;;;5.47;;
13720;SDS011;6932;51.438;5.470;2024-03-06T08:25:54;10.33;;;5.87;;
13720;SDS011;6932;51.438;5.470;2024-03-06T08:28:20;9.43;;;5.40;;
13720;SDS011;6932;51.438;5.470;2024-03-06T08:30:46;9.20;;;5.27;;
13720;SDS011;6932;51.438;5.470;2024-03-06T08:33:11;8.70;;;5.40;;
13720;SDS011;6932;51.438;5.470;2024-03-06T08:35:37;9.33;;;5.83;;
13720;SDS011;6932;51.438;5.470;2024-03-06T08:38:04;8.80;;;5.50;;
13720;SDS011;6932;51.438;5.470;2024-03-06T08:40:31;9.07;;;5.80;;
13720;SDS011;6932;51.438;5.470;2024-03-06T08:42:57;8.93;;;5.30;;
13720;SDS011;6932;51.438;5.470;2024-03-06T08:45:23;8.47;;;5.30;;
13720;SDS011;6932;51.438;5.470;2024-03-06T08:47:49;9.87;;;5.77;;
13720;SDS011;6932;51.438;5.470;2024-03-06T08:50:17;9.40;;;5.67;;
13720;SDS011;6932;51.438;5.470;2024-03-06T08:52:42;8.97;;;5.70;;
13720;SDS011;6932;51.438;5.470;2024-03-06T08:55:08;8.27;;;5.80;;
13720;SDS011;6932;51.438;5.470;2024-03-06T08:57:35;10.17;;;6.03;;
13720;SDS011;6932;51.438;5.470;2024-03-06T09:00:02;9.33;;;5.73;;
13720;SDS011;6932;51.438;5.470;2024-03-06T09:02:29;8.87;;;5.70;;
13720;SDS011;6932;51.438;5.470;2024-03-06T09:04:55;9.80;;;5.80;;
13720;SDS011;6932;51.438;5.470;2024-03-06T09:07:21;10.97;;;6.27;;
13720;SDS011;6932;51.438;5.470;2024-03-06T09:09:48;8.27;;;5.40;;
13720;SDS011;6932;51.438;5.470;2024-03-06T09:12:16;7.33;;;4.83;;
13720;SDS011;6932;51.438;5.470;2024-03-06T09:14:42;8.10;;;5.20;;
13720;SDS011;6932;51.438;5.470;2024-03-06T09:17:09;8.80;;;5.30;;
13720;SDS011;6932;51.438;5.470;2024-03-06T09:19:39;7.80;;;5.30;;
13720;SDS011;6932;51.438;5.470;2024-03-06T09:22:05;9.23;;;5.20;;
13720;SDS011;6932;51.438;5.470;2024-03-06T09:24:32;9.07;;;5.27;;
13720;SDS011;6932;51.438;5.470;2024-03-06T09:27:00;8.03;;;5.30;;
13720;SDS011;6932;51.438;5.470;2024-03-06T09:29:26;8.30;;;5.20;;
13720;SDS011;6932;51.438;5.470;2024-03-06T09:31:52;7.53;;;5.00;;
13720;SDS011;6932;51.438;5.470;2024-03-06T09:34:17;8.47;;;5.43;;
13720;SDS011;6932;51.438;5.470;2024-03-06T09:36:47;9.17;;;5.50;;
13720;SDS011;6932;51.438;5.470;2024-03-06T09:39:15;7.77;;;4.97;;
13720;SDS011;6932;51.438;5.470;2024-03-06T09:41:46;8.93;;;5.37;;
13720;SDS011;6932;51.438;5.470;2024-03-06T09:44:12;8.60;;;5.17;;
13720;SDS011;6932;51.438;5.470;2024-03-06T09:46:43;9.07;;;5.50;;
13720;SDS011;6932;51.438;5.470;2024-03-06T09:49:11;8.77;;;5.60;;
13720;SDS011;6932;51.438;5.470;2024-03-06T09:51:44;10.87;;;5.33;;
13720;SDS011;6932;51.438;5.470;2024-03-06T09:54:19;8.77;;;5.27;;
13720;SDS011;6932;51.438;5.470;2024-03-06T09:56:45;8.93;;;5.20;;
13720;SDS011;6932;51.438;5.470;2024-03-06T09:59:12;8.53;;;5.13;;
13720;SDS011;6932;51.438;5.470;2024-03-06T10:01:55;8.63;;;5.10;;
13720;SDS011;6932;51.438;5.470;2024-03-06T10:04:23;9.63;;;5.47;;
13720;SDS011;6932;51.438;5.470;2024-03-06T10:06:57;9.30;;;5.30;;
13720;SDS011;6932;51.438;5.470;2024-03-06T10:09:24;8.90;;;5.00;;
13720;SDS011;6932;51.438;5.470;2024-03-06T10:11:51;6.80;;;4.50;;
13720;SDS011;6932;51.438;5.470;2024-03-06T10:14:18;9.57;;;4.73;;
13720;SDS011;6932;51.438;5.470;2024-03-06T10:16:54;7.10;;;4.50;;
13720;SDS011;6932;51.438;5.470;2024-03-06T10:19:22;8.63;;;4.57;;
13720;SDS011;6932;51.438;5.470;2024-03-06T10:21:55;8.37;;;4.70;;
13720;SDS011;6932;51.438;5.470;2024-03-06T10:24:28;8.73;;;4.50;;
13720;SDS011;6932;51.438;5.470;2024-03-06T10:26:55;6.40;;;3.00;;
13720;SDS011;6932;51.438;5.470;2024-03-06T10:29:24;6.67;;;3.87;;
13720;SDS011;6932;51.438;5.470;2024-03-06T10:31:52;7.03;;;4.00;;
13720;SDS011;6932;51.438;5.470;2024-03-06T10:34:27;6.83;;;3.80;;
13720;SDS011;6932;51.438;5.470;2024-03-06T10:37:01;4.53;;;2.57;;
13720;SDS011;6932;51.438;5.470;2024-03-06T10:39:34;3.20;;;2.33;;
13720;SDS011;6932;51.438;5.470;2024-03-06T10:42:07;3.33;;;2.50;;
13720;SDS011;6932;51.438;5.470;2024-03-06T10:44:33;6.73;;;2.63;;
13720;SDS011;6932;51.438;5.470;2024-03-06T10:47:02;3.57;;;2.50;;
13720;SDS011;6932;51.438;5.470;2024-03-06T10:49:31;5.77;;;2.10;;
13720;SDS011;6932;51.438;5.470;2024-03-06T10:52:03;4.57;;;2.30;;
13720;SDS011;6932;51.438;5.470;2024-03-06T10:54:31;4.03;;;2.37;;
13720;SDS011;6932;51.438;5.470;2024-03-06T10:56:59;3.03;;;2.40;;
13720;SDS011;6932;51.438;5.470;2024-03-06T10:59:27;3.80;;;2.40;;
13720;SDS011;6932;51.438;5.470;2024-03-06T11:01:57;3.80;;;2.50;;
13720;SDS011;6932;51.438;5.470;2024-03-06T11:04:26;4.10;;;2.60;;
13720;SDS011;6932;51.438;5.470;2024-03-06T11:06:57;4.00;;;2.83;;
13720;SDS011;6932;51.438;5.470;2024-03-06T11:09:24;4.70;;;3.00;;
13720;SDS011;6932;51.438;5.470;2024-03-06T11:11:57;4.40;;;3.10;;
13720;SDS011;6932;51.438;5.470;2024-03-06T11:14:23;5.20;;;3.20;;
13720;SDS011;6932;51.438;5.470;2024-03-06T11:17:02;6.23;;;3.50;;
13720;SDS011;6932;51.438;5.470;2024-03-06T11:19:32;5.33;;;3.10;;
13720;SDS011;6932;51.438;5.470;2024-03-06T11:28:24;4.27;;;2.80;;
13720;SDS011;6932;51.438;5.470;2024-03-06T11:31:04;5.07;;;2.97;;
13720;SDS011;6932;51.438;5.470;2024-03-06T11:33:44;5.57;;;2.80;;
13720;SDS011;6932;51.438;5.470;2024-03-06T11:39:02;4.10;;;2.83;;
13720;SDS011;6932;51.438;5.470;2024-03-06T11:44:12;4.00;;;2.40;;
13720;SDS011;6932;51.438;5.470;2024-03-06T11:46:47;4.03;;;2.30;;
13720;SDS011;6932;51.438;5.470;2024-03-06T11:49:15;2.57;;;2.00;;
13720;SDS011;6932;51.438;5.470;2024-03-06T11:51:57;3.03;;;2.23;;
13720;SDS011;6932;51.438;5.470;2024-03-06T11:54:30;3.13;;;2.10;;
13720;SDS011;6932;51.438;5.470;2024-03-06T11:56:58;3.53;;;2.30;;
13720;SDS011;6932;51.438;5.470;2024-03-06T11:59:31;3.70;;;2.50;;
13720;SDS011;6932;51.438;5.470;2024-03-06T12:02:04;3.67;;;2.23;;
13720;SDS011;6932;51.438;5.470;2024-03-06T12:04:30;4.07;;;2.57;;
13720;SDS011;6932;51.438;5.470;2024-03-06T12:07:03;4.93;;;2.27;;
13720;SDS011;6932;51.438;5.470;2024-03-06T12:09:30;3.47;;;2.33;;
13720;SDS011;6932;51.438;5.470;2024-03-06T12:11:58;3.60;;;2.50;;
13720;SDS011;6932;51.438;5.470;2024-03-06T12:14:24;3.83;;;2.30;;
13720;SDS011;6932;51.438;5.470;2024-03-06T12:16:58;3.90;;;2.40;;
13720;SDS011;6932;51.438;5.470;2024-03-06T12:19:31;3.57;;;2.40;;
13720;SDS011;6932;51.438;5.470;2024-03-06T12:22:01;3.53;;;2.60;;
13720;SDS011;6932;51.438;5.470;2024-03-06T12:24:30;3.60;;;2.73;;
13720;SDS011;6932;51.438;5.470;2024-03-06T12:26:59;4.17;;;2.60;;
13720;SDS011;6932;51.438;5.470;2024-03-06T12:29:28;4.50;;;2.77;;
13720;SDS011;6932;51.438;5.470;2024-03-06T12:31:56;3.40;;;2.60;;
13720;SDS011;6932;51.438;5.470;2024-03-06T12:34:22;5.07;;;2.90;;
13720;SDS011;6932;51.438;5.470;2024-03-06T12:36:48;4.83;;;2.90;;
13720;SDS011;6932;51.438;5.470;2024-03-06T12:39:14;3.60;;;2.80;;
13720;SDS011;6932;51.438;5.470;2024-03-06T12:41:46;4.63;;;2.83;;
13720;SDS011;6932;51.438;5.470;2024-03-06T12:44:12;4.37;;;2.60;;
13720;SDS011;6932;51.438;5.470;2024-03-06T12:46:40;4.90;;;2.73;;
13720;SDS011;6932;51.438;5.470;2024-03-06T12:49:06;4.17;;;2.53;;
13720;SDS011;6932;51.438;5.470;2024-03-06T12:51:31;4.33;;;2.40;;
13720;SDS011;6932;51.438;5.470;2024-03-06T12:53:57;4.27;;;2.80;;
13720;SDS011;6932;51.438;5.470;2024-03-06T12:56:23;5.57;;;3.50;;
13720;SDS011;6932;51.438;5.470;2024-03-06T12:58:50;4.97;;;3.57;;
13720;SDS011;6932;51.438;5.470;2024-03-06T13:01:18;5.30;;;3.70;;
13720;SDS011;6932;51.438;5.470;2024-03-06T13:03:45;6.07;;;3.67;;
13720;SDS011;6932;51.438;5.470;2024-03-06T13:06:11;6.67;;;3.90;;
13720;SDS011;6932;51.438;5.470;2024-03-06T13:08:37;6.03;;;3.63;;
13720;SDS011;6932;51.438;5.470;2024-03-06T13:11:03;4.90;;;3.40;;
13720;SDS011;6932;51.438;5.470;2024-03-06T13:13:29;5.20;;;3.50;;
13720;SDS011;6932;51.438;5.470;2024-03-06T13:15:57;5.43;;;2.90;;
13720;SDS011;6932;51.438;5.470;2024-03-06T13:18:24;3.30;;;2.60;;
13720;SDS011;6932;51.438;5.470;2024-03-06T13:20:50;5.87;;;2.80;;
13720;SDS011;6932;51.438;5.470;2024-03-06T13:23:17;3.80;;;2.70;;
13720;SDS011;6932;51.438;5.470;2024-03-06T13:25:43;4.80;;;3.20;;
13720;SDS011;6932;51.438;5.470;2024-03-06T13:28:10;4.77;;;3.13;;
13720;SDS011;6932;51.438;5.470;2024-03-06T13:30:37;5.07;;;3.30;;
13720;SDS011;6932;51.438;5.470;2024-03-06T13:33:04;5.17;;;3.47;;
13720;SDS011;6932;51.438;5.470;2024-03-06T13:35:30;4.97;;;3.27;;
13720;SDS011;6932;51.438;5.470;2024-03-06T13:37:56;3.50;;;2.67;;
13720;SDS011;6932;51.438;5.470;2024-03-06T13:40:22;3.97;;;2.60;;
13720;SDS011;6932;51.438;5.470;2024-03-06T13:42:48;4.07;;;2.60;;
13720;SDS011;6932;51.438;5.470;2024-03-06T13:45:14;4.37;;;2.97;;
13720;SDS011;6932;51.438;5.470;2024-03-06T13:47:41;4.13;;;2.63;;
13720;SDS011;6932;51.438;5.470;2024-03-06T13:50:09;4.50;;;2.60;;
13720;SDS011;6932;51.438;5.470;2024-03-06T13:52:40;4.97;;;3.00;;
13720;SDS011;6932;51.438;5.470;2024-03-06T13:55:07;4.57;;;3.13;;
13720;SDS011;6932;51.438;5.470;2024-03-06T13:57:35;4.40;;;3.20;;
13720;SDS011;6932;51.438;5.470;2024-03-06T14:00:02;5.47;;;3.63;;
13720;SDS011;6932;51.438;5.470;2024-03-06T14:02:42;6.30;;;3.30;;
13720;SDS011;6932;51.438;5.470;2024-03-06T14:05:10;4.70;;;3.13;;
13720;SDS011;6932;51.438;5.470;2024-03-06T14:07:37;5.77;;;2.90;;
13720;SDS011;6932;51.438;5.470;2024-03-06T14:10:05;3.73;;;2.73;;
13720;SDS011;6932;51.438;5.470;2024-03-06T14:12:33;3.73;;;2.90;;
13720;SDS011;6932;51.438;5.470;2024-03-06T14:15:03;3.53;;;2.77;;
13720;SDS011;6932;51.438;5.470;2024-03-06T14:17:33;3.60;;;2.50;;
13720;SDS011;6932;51.438;5.470;2024-03-06T14:19:59;3.97;;;2.80;;
13720;SDS011;6932;51.438;5.470;2024-03-06T14:22:25;5.17;;;3.10;;
13720;SDS011;6932;51.438;5.470;2024-03-06T14:24:51;5.37;;;3.00;;
13720;SDS011;6932;51.438;5.470;2024-03-06T14:27:17;5.30;;;3.30;;
13720;SDS011;6932;51.438;5.470;2024-03-06T14:29:42;3.67;;;2.90;;
13720;SDS011;6932;51.438;5.470;2024-03-06T14:32:08;4.43;;;3.17;;
13720;SDS011;6932;51.438;5.470;2024-03-06T14:34:34;4.73;;;3.20;;
13720;SDS011;6932;51.438;5.470;2024-03-06T14:37:00;4.03;;;3.10;;
13720;SDS011;6932;51.438;5.470;2024-03-06T14:39:25;5.60;;;3.20;;
13720;SDS011;6932;51.438;5.470;2024-03-06T14:41:51;4.93;;;3.43;;
13720;SDS011;6932;51.438;5.470;2024-03-06T14:44:17;5.03;;;3.33;;
13720;SDS011;6932;51.438;5.470;2024-03-06T14:46:43;5.00;;;3.40;;
13720;SDS011;6932;51.438;5.470;2024-03-06T14:49:11;5.80;;;3.43;;
13720;SDS011;6932;51.438;5.470;2024-03-06T14:51:37;4.77;;;3.30;;
13720;SDS011;6932;51.438;5.470;2024-03-06T14:54:03;5.00;;;3.47;;
13720;SDS011;6932;51.438;5.470;2024-03-06T14:56:29;4.97;;;3.30;;
13720;SDS011;6932;51.438;5.470;2024-03-06T14:58:56;4.37;;;3.00;;
13720;SDS011;6932;51.438;5.470;2024-03-06T15:01:23;4.83;;;3.13;;
13720;SDS011;6932;51.438;5.470;2024-03-06T15:03:50;4.67;;;2.90;;
13720;SDS011;6932;51.438;5.470;2024-03-06T15:06:16;4.77;;;3.00;;